Map

Track Data

SID SEASON NUMBER BASIN SUBBASIN NAME ISO_TIME NATURE LAT LON WMO_WIND WMO_PRES WMO_AGENCY TRACK_TYPE DIST2LAND LANDFALL IFLAG USA_AGENCY USA_ATCF_ID USA_LAT USA_LON USA_RECORD USA_STATUS USA_WIND USA_PRES USA_SSHS USA_R34_NE USA_R34_SE USA_R34_SW USA_R34_NW USA_R50_NE USA_R50_SE USA_R50_SW USA_R50_NW USA_R64_NE USA_R64_SE USA_R64_SW USA_R64_NW USA_POCI USA_ROCI USA_RMW USA_EYE TOKYO_LAT TOKYO_LON TOKYO_GRADE TOKYO_WIND TOKYO_PRES TOKYO_R50_DIR TOKYO_R50_LONG TOKYO_R50_SHORT TOKYO_R30_DIR TOKYO_R30_LONG TOKYO_R30_SHORT TOKYO_LAND CMA_LAT CMA_LON CMA_CAT CMA_WIND CMA_PRES HKO_LAT HKO_LON HKO_CAT HKO_WIND HKO_PRES NEWDELHI_LAT NEWDELHI_LON NEWDELHI_GRADE NEWDELHI_WIND NEWDELHI_PRES NEWDELHI_CI NEWDELHI_DP NEWDELHI_POCI REUNION_LAT REUNION_LON REUNION_TYPE REUNION_WIND REUNION_PRES REUNION_TNUM REUNION_CI REUNION_RMW REUNION_R34_NE REUNION_R34_SE REUNION_R34_SW REUNION_R34_NW REUNION_R50_NE REUNION_R50_SE REUNION_R50_SW REUNION_R50_NW REUNION_R64_NE REUNION_R64_SE REUNION_R64_SW REUNION_R64_NW BOM_LAT BOM_LON BOM_TYPE BOM_WIND BOM_PRES BOM_TNUM BOM_CI BOM_RMW BOM_R34_NE BOM_R34_SE BOM_R34_SW BOM_R34_NW BOM_R50_NE BOM_R50_SE BOM_R50_SW BOM_R50_NW BOM_R64_NE BOM_R64_SE BOM_R64_SW BOM_R64_NW BOM_ROCI BOM_POCI BOM_EYE BOM_POS_METHOD BOM_PRES_METHOD NADI_LAT NADI_LON NADI_CAT NADI_WIND NADI_PRES WELLINGTON_LAT WELLINGTON_LON WELLINGTON_WIND WELLINGTON_PRES DS824_LAT DS824_LON DS824_STAGE DS824_WIND DS824_PRES TD9636_LAT TD9636_LON TD9636_STAGE TD9636_WIND TD9636_PRES TD9635_LAT TD9635_LON TD9635_WIND TD9635_PRES TD9635_ROCI NEUMANN_LAT NEUMANN_LON NEUMANN_CLASS NEUMANN_WIND NEUMANN_PRES MLC_LAT MLC_LON MLC_CLASS MLC_WIND MLC_PRES USA_GUST BOM_GUST BOM_GUST_PER REUNION_GUST REUNION_GUST_PER USA_SEAHGT USA_SEARAD_NE USA_SEARAD_SE USA_SEARAD_SW USA_SEARAD_NW STORM_SPEED STORM_DIR
1988327N06100 1988 108 NI BB NOT_NAMED 1988-11-21 18:00:00 NR 5.60000 99.6000 main 78 78 O_________O___ jtwc_io IO041988 5.60000 99.6000 25 -1 5.60000 99.6000 1 25 8 301
1988327N06100 1988 108 NI BB NOT_NAMED 1988-11-21 21:00:00 NR 5.80931 99.2505 main 111 111 P_________P___ IO041988 5.81005 99.2476 25 -1 5.80856 99.2535 1 25 8 300
1988327N06100 1988 108 NI BB NOT_NAMED 1988-11-22 00:00:00 NR 6.00000 98.9000 main 133 133 O_________O___ jtwc_io IO041988 6.00000 98.9000 25 -1 6.00000 98.9000 1 25 8 297
1988327N06100 1988 108 NI BB NOT_NAMED 1988-11-22 03:00:00 NR 6.16010 98.5461 main 149 136 P_________P___ IO041988 6.15746 98.5575 25 -1 6.16275 98.5347 1 25 8 293
1988327N06100 1988 108 NI BB NOT_NAMED 1988-11-22 06:00:00 NR 6.30338 98.1800 main 140 135 O_________P___ jtwc_io IO041988 6.30000 98.2000 25 -1 6.30676 98.1600 1 25 8 291
1988327N06100 1988 108 NI BB NOT_NAMED 1988-11-22 09:00:00 NR 6.44494 97.7939 main 136 136 P_________P___ IO041988 6.44249 97.8075 25 -1 6.44739 97.7804 1 25 8 291
1988327N06100 1988 108 NI BB NOT_NAMED 1988-11-22 12:00:00 NR 6.60000 97.4000 main 156 156 O_________O___ jtwc_io IO041988 6.60000 97.4000 25 -1 6.60000 97.4000 1 25 9 293
1988327N06100 1988 108 NI BB NOT_NAMED 1988-11-22 15:00:00 NR 6.77892 96.9965 main 179 179 P_________P___ IO041988 6.79249 96.9925 25 -1 6.76535 97.0006 1 25 9 295
1988327N06100 1988 108 NI BB NOT_NAMED 1988-11-22 18:00:00 NR 6.97379 96.6025 main 185 180 O_________P___ jtwc_io IO041988 7.00000 96.6000 25 -1 6.94758 96.6049 1 25 9 297
1988327N06100 1988 108 NI BB NOT_NAMED 1988-11-22 21:00:00 NR 7.16673 96.2371 main 193 191 P_________P___ IO041988 7.17746 96.2424 25 -1 7.15600 96.2318 1 25 8 301
1988327N06100 1988 108 NI BB NOT_NAMED 1988-11-23 00:00:00 NR 7.40000 95.9000 main 206 204 O_________O___ jtwc_io IO041988 7.40000 95.9000 25 -1 7.40000 95.9000 1 25 9 310
1988327N06100 1988 108 NI BB NOT_NAMED 1988-11-23 03:00:00 NR 7.72009 95.5722 main 235 235 P_________P___ IO041988 7.73504 95.5126 25 -1 7.70513 95.6319 1 26 9 319
1988327N06100 1988 108 NI BB NOT_NAMED 1988-11-23 06:00:00 NR 8.07114 95.3025 main 280 280 O_________P___ jtwc_io IO041988 8.10000 95.2000 25 -1 8.04227 95.4050 1 27 8 328
1988327N06100 1988 108 NI BB NOT_NAMED 1988-11-23 09:00:00 NR 8.39911 95.1390 main 313 313 P_________P___ IO041988 8.41493 95.0774 27 -1 8.38329 95.2006 1 28 7 335
1988327N06100 1988 108 NI BB NOT_NAMED 1988-11-23 12:00:00 NR 8.70000 95.0000 main 348 348 O_________O___ jtwc_io IO041988 8.70000 95.0000 30 -1 8.70000 95.0000 1 30 7 329
1988327N06100 1988 108 NI BB NOT_NAMED 1988-11-23 15:00:00 NR 8.96137 94.8007 main 383 383 P_________P___ IO041988 8.96499 94.8225 30 -1 8.95774 94.7789 1 31 6 320
1988327N06100 1988 108 NI BB NOT_NAMED 1988-11-23 18:00:00 NR 9.19370 94.5787 main 408 408 O_________P___ jtwc_io IO041988 9.20000 94.6000 30 -1 9.18740 94.5573 1 32 6 314
1988327N06100 1988 108 NI BB NOT_NAMED 1988-11-23 21:00:00 NR 9.40293 94.3448 main 437 437 P_________P___ IO041988 9.40750 94.3575 32 -1 9.39836 94.3320 1 33 6 311
1988327N06100 1988 108 NI BB NOT_NAMED 1988-11-24 00:00:00 NR 9.60000 94.1000 main 464 464 O_________O___ jtwc_io IO041988 9.60000 94.1000 35 0 9.60000 94.1000 2 35 6 310
1988327N06100 1988 108 NI BB NOT_NAMED 1988-11-24 03:00:00 NR 9.80762 93.8556 main 491 491 P_________P___ IO041988 9.79998 93.8500 35 0 9.81526 93.8612 2 36 6 310
1988327N06100 1988 108 NI BB NOT_NAMED 1988-11-24 06:00:00 NR 10.0112 93.6075 main 523 523 O_________P___ jtwc_io IO041988 10.0000 93.6000 35 0 10.0224 93.6149 2 37 6 309
1988327N06100 1988 108 NI BB NOT_NAMED 1988-11-24 09:00:00 NR 10.2129 93.3556 main 552 552 P_________P___ IO041988 10.2075 93.3500 37 0 10.2184 93.3612 2 38 6 308
1988327N06100 1988 108 NI BB NOT_NAMED 1988-11-24 12:00:00 NR 10.4000 93.1000 main 585 585 O_________O___ jtwc_io IO041988 10.4000 93.1000 40 0 10.4000 93.1000 2 40 6 306
1988327N06100 1988 108 NI BB NOT_NAMED 1988-11-24 15:00:00 NR 10.5710 92.8489 main 607 599 P_________P___ IO041988 10.5575 92.8575 42 0 10.5846 92.8403 2 42 6 303
1988327N06100 1988 108 NI BB NOT_NAMED 1988-11-24 18:00:00 NR 10.7262 92.5863 main 603 593 O_________P___ jtwc_io IO041988 10.7000 92.6000 45 0 10.7524 92.5725 2 45 6 300
1988327N06100 1988 108 NI BB NOT_NAMED 1988-11-24 21:00:00 NR 10.8795 92.3005 main 593 592 P_________P___ IO041988 10.8650 92.3075 47 0 10.8939 92.2935 2 47 6 295
1988327N06100 1988 108 NI BB NOT_NAMED 1988-11-25 00:00:00 NR 11.0000 92.0000 main 596 596 O_________O___ jtwc_io IO041988 11.0000 92.0000 50 0 11.0000 92.0000 2 50 6 287
1988327N06100 1988 108 NI BB NOT_NAMED 1988-11-25 03:00:00 NR 11.0647 91.6963 main 601 601 P_________P___ IO041988 11.0724 91.7075 50 0 11.0569 91.6851 2 51 6 278
1988327N06100 1988 108 NI BB NOT_NAMED 1988-11-25 06:00:00 NR 11.0900 91.3786 main 618 618 O_________P___ jtwc_io IO041988 11.1000 91.4000 50 0 11.0800 91.3572 2 52 6 273
1988327N06100 1988 108 NI BB NOT_NAMED 1988-11-25 09:00:00 NR 11.0941 91.0379 main 642 642 P_________P___ IO041988 11.1000 91.0500 52 0 11.0881 91.0257 2 53 7 271
1988327N06100 1988 108 NI BB NOT_NAMED 1988-11-25 12:00:00 NR 11.1000 90.7000 main 661 661 O_________O___ jtwc_io IO041988 11.1000 90.7000 55 0 11.1000 90.7000 2 55 6 273
1988327N06100 1988 108 NI BB NOT_NAMED 1988-11-25 15:00:00 NR 11.1304 90.3885 main 681 681 P_________P___ IO041988 11.1424 90.3925 57 0 11.1184 90.3845 2 57 6 277
1988327N06100 1988 108 NI BB NOT_NAMED 1988-11-25 18:00:00 NR 11.1737 90.0886 main 693 693 O_________P___ jtwc_io IO041988 11.2000 90.1000 60 0 11.1474 90.0773 2 60 6 279
1988327N06100 1988 108 NI BB NOT_NAMED 1988-11-25 21:00:00 NR 11.2189 89.7869 main 716 716 P_________P___ IO041988 11.2350 89.7924 62 0 11.2028 89.7814 2 62 6 282
1988327N06100 1988 108 NI BB NOT_NAMED 1988-11-26 00:00:00 NR 11.3000 89.5000 main 731 730 O_________O___ jtwc_io IO041988 11.3000 89.5000 65 1 11.3000 89.5000 3 65 6 291
1988327N06100 1988 108 NI BB NOT_NAMED 1988-11-26 03:00:00 NR 11.4323 89.2269 main 746 738 P_________P___ IO041988 11.4200 89.2425 67 1 11.4447 89.2114 3 67 6 301
1988327N06100 1988 108 NI BB NOT_NAMED 1988-11-26 06:00:00 NR 11.6163 88.9701 main 747 747 O_________P___ jtwc_io IO041988 11.6000 89.0000 70 1 11.6325 88.9402 3 70 7 309
1988327N06100 1988 108 NI BB NOT_NAMED 1988-11-26 09:00:00 NR 11.8408 88.7132 main 757 750 P_________P___ IO041988 11.8275 88.7275 72 1 11.8541 88.6989 3 72 7 317
1988327N06100 1988 108 NI BB NOT_NAMED 1988-11-26 12:00:00 NR 12.1000 88.5000 main 754 744 O_________O___ jtwc_io IO041988 12.1000 88.5000 75 1 12.1000 88.5000 4 75 6 327
1988327N06100 1988 108 NI BB NOT_NAMED 1988-11-26 15:00:00 NR 12.3787 88.3630 main 744 735 P_________P___ IO041988 12.4000 88.3774 75 1 12.3574 88.3486 4 75 6 338
1988327N06100 1988 108 NI BB NOT_NAMED 1988-11-26 18:00:00 NR 12.6674 88.2699 main 735 733 O_________P___ jtwc_io IO041988 12.7000 88.3000 75 1 12.6349 88.2399 4 75 6 342
1988327N06100 1988 108 NI BB NOT_NAMED 1988-11-26 21:00:00 NR 12.9387 88.1768 main 733 713 P_________P___ IO041988 12.9575 88.1925 75 1 12.9199 88.1612 4 75 6 343
1988327N06100 1988 108 NI BB NOT_NAMED 1988-11-27 00:00:00 NR 13.2000 88.1000 main 713 689 O_________O___ jtwc_io IO041988 13.2000 88.1000 75 1 13.2000 88.1000 4 75 5 345
1988327N06100 1988 108 NI BB NOT_NAMED 1988-11-27 03:00:00 NR 13.4515 88.0390 main 680 662 P_________P___ IO041988 13.4500 88.0425 75 1 13.4531 88.0355 4 76 5 348
1988327N06100 1988 108 NI BB NOT_NAMED 1988-11-27 06:00:00 NR 13.7000 87.9924 main 662 645 O_________P___ jtwc_io IO041988 13.7000 88.0000 75 1 13.7000 87.9848 4 77 5 350
1988327N06100 1988 108 NI BB NOT_NAMED 1988-11-27 09:00:00 NR 13.9484 87.9496 main 638 612 P_________P___ IO041988 13.9500 87.9575 77 1 13.9469 87.9418 4 78 5 350
1988327N06100 1988 108 NI BB NOT_NAMED 1988-11-27 12:00:00 NR 14.2000 87.9000 main 612 588 O_________O___ jtwc_io IO041988 14.2000 87.9000 80 1 14.2000 87.9000 4 80 5 346
1988327N06100 1988 108 NI BB NOT_NAMED 1988-11-27 15:00:00 NR 14.4511 87.8152 main 580 556 P_________P___ IO041988 14.4425 87.7925 82 1 14.4597 87.8379 4 82 5 343
1988327N06100 1988 108 NI BB NOT_NAMED 1988-11-27 18:00:00 NR 14.7138 87.7388 main 556 532 O_________P___ jtwc_io IO041988 14.7000 87.7000 85 2 14.7275 87.7776 4 85 6 349
1988327N06100 1988 108 NI BB NOT_NAMED 1988-11-27 21:00:00 NR 15.0033 87.7067 main 532 509 P_________P___ IO041988 15.0000 87.6849 87 2 15.0066 87.7286 4 87 6 355
1988327N06100 1988 108 NI BB NOT_NAMED 1988-11-28 00:00:00 NR 15.3000 87.7000 main 509 493 O_________O___ jtwc_io IO041988 15.3000 87.7000 90 2 15.3000 87.7000 4 90 6 0
1988327N06100 1988 108 NI BB NOT_NAMED 1988-11-28 03:00:00 NR 15.5505 87.6940 main 485 469 P_________P___ IO041988 15.5350 87.6925 90 2 15.5660 87.6954 4 90 5 1
1988327N06100 1988 108 NI BB NOT_NAMED 1988-11-28 06:00:00 NR 15.8263 87.7063 main 469 446 O_________P___ jtwc_io IO041988 15.8000 87.7000 90 2 15.8526 87.7127 4 90 6 3
1988327N06100 1988 108 NI BB NOT_NAMED 1988-11-28 09:00:00 NR 16.1714 87.7418 main 439 408 P_________P___ IO041988 16.1550 87.7351 90 2 16.1879 87.7486 4 90 8 6
1988327N06100 1988 108 NI BB NOT_NAMED 1988-11-28 12:00:00 NR 16.6000 87.8000 main 408 360 O_________O___ jtwc_io IO041988 16.6000 87.8000 90 2 16.6000 87.8000 4 90 10 7
1988327N06100 1988 108 NI BB NOT_NAMED 1988-11-28 15:00:00 NR 17.1086 87.8684 main 360 301 P_________P___ IO041988 17.1125 87.8999 92 2 17.1047 87.8369 4 92 11 7
1988327N06100 1988 108 NI BB NOT_NAMED 1988-11-28 18:00:00 NR 17.6938 87.9455 main 301 253 O_________P___ jtwc_io IO041988 17.7000 88.0000 95 2 17.6875 87.8911 4 95 12 6
1988327N06100 1988 108 NI BB NOT_NAMED 1988-11-28 21:00:00 NR 18.3270 88.0124 main 253 206 P_________P___ IO041988 18.3275 88.0502 97 3 18.3266 87.9747 4 97 13 6
1988327N06100 1988 108 NI BB NOT_NAMED 1988-11-29 00:00:00 NR 19.0000 88.1000 main 206 167 O_________O___ jtwc_io IO041988 19.0000 88.1000 100 3 19.0000 88.1000 4 100 14 8
1988327N06100 1988 108 NI BB NOT_NAMED 1988-11-29 03:00:00 NR 19.7001 88.2124 main 167 134 P_________P___ IO041988 19.6924 88.1555 102 3 19.7077 88.2692 4 102 15 11
1988327N06100 1988 108 NI BB NOT_NAMED 1988-11-29 06:00:00 NR 20.4187 88.3910 main 134 56 O_________P___ jtwc_io IO041988 20.4000 88.3000 105 3 20.4374 88.4819 4 105 15 17
1988327N06100 1988 108 NI BB NOT_NAMED 1988-11-29 09:00:00 NR 21.1392 88.6741 main 59 0 P_________P___ IO041988 21.1301 88.6195 107 3 21.1484 88.7288 4 107 15 22
1988327N06100 1988 108 NI BB NOT_NAMED 1988-11-29 12:00:00 NR 21.8000 89.0000 main 0 0 O_________O___ jtwc_io IO041988 21.8000 89.0000 110 3 21.8000 89.0000 4 110 13 26
1988327N06100 1988 108 NI BB NOT_NAMED 1988-11-29 15:00:00 NR 22.3500 89.2973 main 0 0 P_________P___ IO041988 22.3374 89.3079 100 3 22.3627 89.2866 4 97 12 28
1988327N06100 1988 108 NI BB NOT_NAMED 1988-11-29 18:00:00 NR 22.8252 89.5921 main 0 0 O_________P___ jtwc_io IO041988 22.8000 89.6000 90 2 22.8503 89.5842 4 85 11 31
1988327N06100 1988 108 NI BB NOT_NAMED 1988-11-29 21:00:00 NR 23.2690 89.8933 main 0 0 P_________P___ IO041988 23.2502 89.8970 75 1 23.2879 89.8897 4 72 10 33
1988327N06100 1988 108 NI BB NOT_NAMED 1988-11-30 00:00:00 NR 23.7000 90.2000 main 0 O_________O___ jtwc_io IO041988 23.7000 90.2000 60 0 23.7000 90.2000 2 60 10 33

About IBTrACS Database

This database is a web-friendly format of International Best Track Archive for Climate Stewardship (IBTrACS), a global best track data archive curated by NOAA dating back to 1842.

Updated: 2021-12-08